createdAt,value
2019-04-30T00:00:40.999Z,2.20
2019-04-30T00:03:15.999Z,3.22
2019-04-30T00:05:49.364Z,1.90
2019-04-30T00:08:16.888Z,2.67
2019-04-30T00:10:46.329Z,2.72
2019-04-30T00:13:20.701Z,2.20
2019-04-30T00:15:47.865Z,2.45
2019-04-30T00:18:16.888Z,3.37
2019-04-30T00:20:47.054Z,2.87
2019-04-30T00:23:17.962Z,2.75
2019-04-30T00:25:46.991Z,3.33
2019-04-30T00:28:16.111Z,2.85
2019-04-30T00:30:47.654Z,2.47
2019-04-30T00:33:22.177Z,2.40
2019-04-30T00:35:49.704Z,2.62
2019-04-30T00:38:17.151Z,3.70
2019-04-30T00:40:46.175Z,2.45
2019-04-30T00:43:15.573Z,2.83
2019-04-30T00:45:47.400Z,2.62
2019-04-30T00:48:35.684Z,2.77
2019-04-30T00:51:07.602Z,2.62
2019-04-30T00:53:35.934Z,2.65
2019-04-30T00:56:05.699Z,2.35
2019-04-30T00:58:35.631Z,2.70
2019-04-30T01:01:09.552Z,2.87
2019-04-30T01:03:46.480Z,3.02
2019-04-30T01:06:10.688Z,2.55
2019-04-30T01:08:39.608Z,3.20
2019-04-30T01:11:09.643Z,2.67
2019-04-30T01:13:38.919Z,2.77
2019-04-30T01:16:09.843Z,2.37
2019-04-30T01:18:39.128Z,2.08
2019-04-30T01:21:11.249Z,2.83
2019-04-30T01:23:43.179Z,3.27
2019-04-30T01:26:09.635Z,2.55
2019-04-30T01:28:38.775Z,3.27
2019-04-30T01:31:08.996Z,3.98
2019-04-30T01:33:39.013Z,2.17
2019-04-30T01:36:09.731Z,2.35
2019-04-30T01:38:40.239Z,3.22
2019-04-30T01:41:09.529Z,2.98
2019-04-30T01:43:38.692Z,3.55
2019-04-30T01:46:12.691Z,2.35
2019-04-30T01:48:39.318Z,4.47
2019-04-30T01:51:09.029Z,3.22
2019-04-30T01:53:38.776Z,3.83
2019-04-30T01:56:15.375Z,3.08
2019-04-30T01:58:45.823Z,3.42
2019-04-30T02:01:25.367Z,2.40
2019-04-30T02:03:54.303Z,2.83
2019-04-30T02:06:23.238Z,3.72
2019-04-30T02:08:52.255Z,2.77
2019-04-30T02:11:21.319Z,3.92
2019-04-30T02:13:50.296Z,2.37
2019-04-30T02:16:21.113Z,3.37
2019-04-30T02:18:49.863Z,3.08
2019-04-30T02:21:19.508Z,4.00
2019-04-30T02:23:49.286Z,4.75
2019-04-30T02:26:18.828Z,4.55
2019-04-30T02:28:50.935Z,3.35
2019-04-30T02:31:22.989Z,2.45
2019-04-30T02:33:52.132Z,3.27
2019-04-30T02:36:40.418Z,2.98
2019-04-30T02:39:11.155Z,3.17
2019-04-30T02:41:41.524Z,3.27
2019-04-30T02:44:12.135Z,3.08
2019-04-30T02:46:43.377Z,2.98
2019-04-30T02:49:13.187Z,2.98
2019-04-30T02:51:44.087Z,3.42
2019-04-30T02:54:15.959Z,3.12
2019-04-30T02:56:46.451Z,2.33
2019-04-30T02:59:15.385Z,4.17
2019-04-30T03:01:44.617Z,3.30
2019-04-30T03:04:13.505Z,3.90
2019-04-30T03:06:42.513Z,2.45
2019-04-30T03:09:11.553Z,4.17
2019-04-30T03:11:41.030Z,3.87
2019-04-30T03:14:10.434Z,3.72
2019-04-30T03:16:44.440Z,3.08
2019-04-30T03:19:30.161Z,3.02
2019-04-30T03:22:06.841Z,3.25
2019-04-30T03:24:35.968Z,4.12
2019-04-30T03:27:05.019Z,3.30
2019-04-30T03:29:33.936Z,2.92
2019-04-30T03:32:03.722Z,2.87
2019-04-30T03:34:33.343Z,3.52
2019-04-30T03:37:02.961Z,3.77
2019-04-30T03:39:34.058Z,3.25
2019-04-30T03:42:03.124Z,2.87
2019-04-30T03:44:32.644Z,2.95
2019-04-30T03:47:01.745Z,3.33
2019-04-30T03:49:30.672Z,2.42
2019-04-30T03:52:00.061Z,3.70
2019-04-30T03:54:29.507Z,3.77
2019-04-30T03:57:00.881Z,3.35
2019-04-30T03:59:30.436Z,3.45
2019-04-30T04:02:01.200Z,3.85
2019-04-30T04:04:31.807Z,4.22
2019-04-30T04:07:20.319Z,4.10
2019-04-30T04:10:09.883Z,3.20
2019-04-30T04:12:39.425Z,3.98
2019-04-30T04:15:10.478Z,2.95
2019-04-30T04:17:39.922Z,3.52
2019-04-30T04:20:10.552Z,3.58
2019-04-30T04:22:40.464Z,3.90
2019-04-30T04:25:13.245Z,5.78
2019-04-30T04:27:40.322Z,4.83
2019-04-30T04:30:10.704Z,4.55
2019-04-30T04:32:40.794Z,4.15
2019-04-30T04:35:12.644Z,5.50
2019-04-30T04:37:40.907Z,5.65
2019-04-30T04:40:10.097Z,4.97
2019-04-30T04:42:39.665Z,4.62
2019-04-30T04:45:09.940Z,5.50
2019-04-30T04:47:40.114Z,5.35
2019-04-30T04:50:10.478Z,6.28
2019-04-30T04:52:39.823Z,5.85
2019-04-30T04:55:10.090Z,6.37
2019-04-30T04:57:40.071Z,5.00
2019-04-30T05:00:10.579Z,5.12
2019-04-30T05:02:59.944Z,5.00
2019-04-30T05:05:29.839Z,5.67
2019-04-30T05:07:59.087Z,5.70
2019-04-30T05:10:29.211Z,4.37
2019-04-30T05:12:59.284Z,5.55
2019-04-30T05:15:29.499Z,3.98
2019-04-30T05:17:59.251Z,5.87
2019-04-30T05:20:29.167Z,3.85
2019-04-30T05:22:58.588Z,4.37
2019-04-30T05:25:29.463Z,7.00
2019-04-30T05:27:58.703Z,8.30
2019-04-30T05:30:29.516Z,5.78
2019-04-30T05:32:58.950Z,4.90
2019-04-30T05:35:28.731Z,6.17
2019-04-30T05:37:59.292Z,6.80
2019-04-30T05:40:28.812Z,6.08
2019-04-30T05:42:57.969Z,4.75
2019-04-30T05:45:28.944Z,7.85
2019-04-30T05:47:58.750Z,5.28
2019-04-30T05:50:29.692Z,4.90
2019-04-30T05:52:59.346Z,6.17
2019-04-30T05:55:30.491Z,5.00
2019-04-30T05:58:01.522Z,6.15
2019-04-30T06:00:30.809Z,6.33
2019-04-30T06:02:59.833Z,5.37
2019-04-30T06:05:28.835Z,6.00
2019-04-30T06:07:59.301Z,5.70
2019-04-30T06:10:33.177Z,5.37
2019-04-30T06:13:03.954Z,6.05
2019-04-30T06:15:43.530Z,5.65
2019-04-30T06:18:13.983Z,7.67
2019-04-30T06:20:43.673Z,5.92
2019-04-30T06:23:12.890Z,6.70
2019-04-30T06:25:56.225Z,5.87
2019-04-30T06:28:13.320Z,6.35
2019-04-30T06:30:42.359Z,4.58
2019-04-30T06:33:11.822Z,6.25
2019-04-30T06:35:41.087Z,7.47
2019-04-30T06:38:10.295Z,7.42
2019-04-30T06:40:39.313Z,7.03
2019-04-30T06:43:09.261Z,9.10
2019-04-30T06:45:40.047Z,7.03
2019-04-30T06:48:10.224Z,6.78
2019-04-30T06:50:39.417Z,5.50
2019-04-30T06:53:09.304Z,8.10
2019-04-30T06:55:39.252Z,7.00
2019-04-30T06:58:14.675Z,5.75
2019-04-30T07:00:40.421Z,5.12
2019-04-30T07:03:09.924Z,7.85
2019-04-30T07:05:39.321Z,6.17
2019-04-30T07:08:15.431Z,6.00
2019-04-30T07:10:55.401Z,5.53
2019-04-30T07:13:18.669Z,6.20
2019-04-30T07:15:48.957Z,5.50
2019-04-30T07:18:18.959Z,5.95
2019-04-30T07:20:48.636Z,5.53
2019-04-30T07:23:21.129Z,6.00
2019-04-30T07:25:51.772Z,7.05
2019-04-30T07:28:21.216Z,6.87
2019-04-30T07:31:07.193Z,8.48
2019-04-30T07:33:21.054Z,5.12
2019-04-30T07:35:50.339Z,6.37
2019-04-30T07:38:19.474Z,5.35
2019-04-30T07:40:49.312Z,5.03
2019-04-30T07:43:18.968Z,5.12
2019-04-30T07:45:50.079Z,6.53
2019-04-30T07:48:25.681Z,6.28
2019-04-30T07:50:52.131Z,5.60
2019-04-30T07:53:21.335Z,4.80
2019-04-30T07:55:50.367Z,4.47
2019-04-30T07:58:20.470Z,4.78
2019-04-30T08:00:55.431Z,4.87
2019-04-30T08:03:30.233Z,6.28
2019-04-30T08:06:00.952Z,5.47
2019-04-30T08:08:30.588Z,5.75
2019-04-30T08:11:00.376Z,5.83
2019-04-30T08:13:32.746Z,6.67
2019-04-30T08:16:00.577Z,4.92
2019-04-30T08:18:30.135Z,4.65
2019-04-30T08:21:01.037Z,6.80
2019-04-30T08:23:34.860Z,5.67
2019-04-30T08:26:00.841Z,7.08
2019-04-30T08:28:33.235Z,6.67
2019-04-30T08:31:05.568Z,5.15
2019-04-30T08:33:34.537Z,5.42
2019-04-30T08:36:03.620Z,4.53
2019-04-30T08:38:32.607Z,4.75
2019-04-30T08:41:01.569Z,5.65
2019-04-30T08:43:30.480Z,5.25
2019-04-30T08:45:59.539Z,6.58
2019-04-30T08:48:43.814Z,6.25
2019-04-30T08:50:59.634Z,5.35
2019-04-30T08:53:32.847Z,5.42
2019-04-30T08:55:59.431Z,4.87
2019-04-30T08:58:34.408Z,5.12
2019-04-30T09:01:03.432Z,5.55
2019-04-30T09:03:32.456Z,4.05
2019-04-30T09:06:06.114Z,5.70
2019-04-30T09:08:35.136Z,5.90
2019-04-30T09:11:04.199Z,6.10
2019-04-30T09:13:33.249Z,5.08
2019-04-30T09:16:02.895Z,5.42
2019-04-30T09:18:31.792Z,5.50
2019-04-30T09:21:06.035Z,5.45
2019-04-30T09:23:43.932Z,5.87
2019-04-30T09:26:02.345Z,5.50
2019-04-30T09:28:31.247Z,6.50
2019-04-30T09:31:00.202Z,5.90
2019-04-30T09:33:29.493Z,6.53
2019-04-30T09:35:59.512Z,5.62
2019-04-30T09:38:29.098Z,5.78
2019-04-30T09:40:59.425Z,5.17
2019-04-30T09:43:28.753Z,5.10
2019-04-30T09:45:59.303Z,5.12
2019-04-30T09:48:30.322Z,5.92
2019-04-30T09:51:00.821Z,5.37
2019-04-30T09:53:30.356Z,5.60
2019-04-30T09:55:59.764Z,5.35
2019-04-30T09:58:30.008Z,6.00
2019-04-30T10:00:59.463Z,6.30
2019-04-30T10:03:30.481Z,5.87
2019-04-30T10:05:59.145Z,5.15
2019-04-30T10:08:30.144Z,5.20
2019-04-30T10:11:12.440Z,6.00
2019-04-30T10:13:41.487Z,5.60
2019-04-30T10:16:27.032Z,6.25
2019-04-30T10:18:55.999Z,6.05
2019-04-30T10:21:25.084Z,6.00
2019-04-30T10:23:54.151Z,5.37
2019-04-30T10:26:23.311Z,5.45
2019-04-30T10:28:52.872Z,5.25
2019-04-30T10:31:21.759Z,5.00
2019-04-30T10:33:50.799Z,4.92
2019-04-30T10:36:19.719Z,5.20
2019-04-30T10:38:49.410Z,6.08
2019-04-30T10:41:18.903Z,5.03
2019-04-30T10:43:49.211Z,6.50
2019-04-30T10:46:18.536Z,5.78
2019-04-30T10:48:47.519Z,5.75
2019-04-30T10:51:19.424Z,7.30
2019-04-30T10:53:51.256Z,5.83
2019-04-30T10:56:20.215Z,6.33
2019-04-30T10:58:49.168Z,6.55
2019-04-30T11:01:19.265Z,6.40
2019-04-30T11:03:48.314Z,6.33
2019-04-30T11:06:19.057Z,7.08
2019-04-30T11:08:47.898Z,6.40
2019-04-30T11:11:16.792Z,6.75
2019-04-30T11:13:48.231Z,6.00
2019-04-30T11:16:18.861Z,7.90
2019-04-30T11:18:48.044Z,6.33
2019-04-30T11:21:19.398Z,7.70
2019-04-30T11:23:49.472Z,8.40
2019-04-30T11:26:19.321Z,7.85
2019-04-30T11:28:48.876Z,7.15
2019-04-30T11:31:25.508Z,7.97
2019-04-30T11:33:59.728Z,8.10
2019-04-30T11:36:29.178Z,9.43
2019-04-30T11:38:58.712Z,8.35
2019-04-30T11:41:30.915Z,8.00
2019-04-30T11:43:59.466Z,7.45
2019-04-30T11:46:34.439Z,7.25
2019-04-30T11:49:03.518Z,8.10
2019-04-30T11:51:32.537Z,8.98
2019-04-30T11:54:01.560Z,8.30
2019-04-30T11:56:30.656Z,9.70
2019-04-30T11:58:59.671Z,8.23
2019-04-30T12:01:30.432Z,7.90
2019-04-30T12:03:59.867Z,8.18
2019-04-30T12:06:29.096Z,9.00
2019-04-30T12:08:59.700Z,8.50
2019-04-30T12:11:35.871Z,7.75
2019-04-30T12:14:05.407Z,7.62
2019-04-30T12:16:34.353Z,8.10
2019-04-30T12:19:06.247Z,8.73
2019-04-30T12:21:35.327Z,7.58
2019-04-30T12:24:04.575Z,8.08
2019-04-30T12:26:34.055Z,7.30
2019-04-30T12:29:03.017Z,7.03
2019-04-30T12:31:32.215Z,7.58
2019-04-30T12:34:01.258Z,6.67
2019-04-30T12:36:30.239Z,8.00
2019-04-30T12:38:59.159Z,8.63
2019-04-30T12:41:28.159Z,7.35
2019-04-30T12:43:57.536Z,9.03
2019-04-30T12:46:28.776Z,6.85
2019-04-30T12:48:59.568Z,8.05
2019-04-30T12:51:48.819Z,8.78
2019-04-30T12:54:21.887Z,9.15
2019-04-30T12:57:04.672Z,8.48
2019-04-30T12:59:34.072Z,9.28
2019-04-30T13:02:02.985Z,9.65
2019-04-30T13:04:31.927Z,11.15
2019-04-30T13:07:02.247Z,10.63
2019-04-30T13:09:32.057Z,10.05
2019-04-30T13:12:01.958Z,9.50
2019-04-30T13:14:31.982Z,9.93
2019-04-30T13:17:01.351Z,10.25
2019-04-30T13:19:30.365Z,11.03
2019-04-30T13:21:59.187Z,9.85
2019-04-30T13:24:31.154Z,10.85
2019-04-30T13:26:59.510Z,11.05
2019-04-30T13:29:30.167Z,10.85
2019-04-30T13:31:59.271Z,10.23
2019-04-30T13:34:42.007Z,9.95
2019-04-30T13:37:11.048Z,11.90
2019-04-30T13:39:50.226Z,10.68
2019-04-30T13:42:18.607Z,11.08
2019-04-30T13:44:49.239Z,12.05
2019-04-30T13:47:19.210Z,11.93
2019-04-30T13:49:49.492Z,12.05
2019-04-30T13:52:18.551Z,12.93
2019-04-30T13:54:47.465Z,11.35
2019-04-30T13:57:16.424Z,11.43
2019-04-30T13:59:45.312Z,11.85
2019-04-30T14:02:14.167Z,10.60
2019-04-30T14:04:47.631Z,11.35
2019-04-30T14:07:39.969Z,10.93
2019-04-30T14:10:09.876Z,13.05
2019-04-30T14:12:39.945Z,11.05
2019-04-30T14:15:09.423Z,11.78
2019-04-30T14:17:39.968Z,10.48
2019-04-30T14:20:09.272Z,11.68
2019-04-30T14:22:57.597Z,12.55
2019-04-30T14:25:26.999Z,12.45
2019-04-30T14:27:56.111Z,12.10
2019-04-30T14:30:25.135Z,11.78
2019-04-30T14:32:54.039Z,10.93
2019-04-30T14:35:23.255Z,12.33
2019-04-30T14:37:52.744Z,11.48
2019-04-30T14:40:22.560Z,13.53
2019-04-30T14:43:05.913Z,8.85
2019-04-30T14:45:41.001Z,11.08
2019-04-30T14:48:23.678Z,10.98
2019-04-30T14:50:51.706Z,11.93
2019-04-30T14:53:25.761Z,10.38
2019-04-30T14:56:13.116Z,12.35
2019-04-30T14:58:52.495Z,9.20
2019-04-30T15:01:23.295Z,10.98
2019-04-30T15:03:52.280Z,9.03
2019-04-30T15:06:21.553Z,9.35
2019-04-30T15:08:52.081Z,10.70
2019-04-30T15:11:21.971Z,10.23
2019-04-30T15:13:51.239Z,9.93
2019-04-30T15:16:20.599Z,10.35
2019-04-30T15:18:49.631Z,9.80
2019-04-30T15:21:19.008Z,10.95
2019-04-30T15:24:00.901Z,11.90
2019-04-30T15:26:28.769Z,11.45
2019-04-30T15:28:59.900Z,10.75
2019-04-30T15:31:29.678Z,11.50
2019-04-30T15:34:02.930Z,12.68
2019-04-30T15:36:31.175Z,10.72
2019-04-30T15:39:07.872Z,10.72
2019-04-30T15:41:37.293Z,11.70
2019-04-30T15:44:06.767Z,9.65
2019-04-30T15:46:36.097Z,9.73
2019-04-30T15:49:05.650Z,11.22
2019-04-30T15:51:34.881Z,9.85
2019-04-30T15:54:04.897Z,9.43
2019-04-30T15:56:37.550Z,10.30
2019-04-30T15:59:09.787Z,9.30
2019-04-30T16:01:40.735Z,9.93
2019-04-30T16:04:11.472Z,10.28
2019-04-30T16:06:40.361Z,11.25
2019-04-30T16:09:18.280Z,11.35
2019-04-30T16:11:50.399Z,11.43
2019-04-30T16:14:24.065Z,9.00
2019-04-30T16:17:06.329Z,10.30
2019-04-30T16:19:35.649Z,9.73
2019-04-30T16:22:05.320Z,10.38
2019-04-30T16:24:34.553Z,8.78
2019-04-30T16:27:03.706Z,9.73
2019-04-30T16:29:32.817Z,10.72
2019-04-30T16:32:02.073Z,10.63
2019-04-30T16:34:31.152Z,10.68
2019-04-30T16:37:00.037Z,11.63
2019-04-30T16:39:29.105Z,11.90
2019-04-30T16:41:59.176Z,10.48
2019-04-30T16:44:28.242Z,10.65
2019-04-30T16:46:59.518Z,9.53
2019-04-30T16:49:29.060Z,10.15
2019-04-30T16:52:01.253Z,10.00
2019-04-30T16:54:28.604Z,8.58
2019-04-30T16:57:05.968Z,10.32
2019-04-30T16:59:30.617Z,9.70
2019-04-30T17:02:00.566Z,10.48
2019-04-30T17:04:34.849Z,9.88
2019-04-30T17:07:20.513Z,7.65
2019-04-30T17:09:51.664Z,10.82
2019-04-30T17:12:22.456Z,9.78
2019-04-30T17:15:09.394Z,9.53
2019-04-30T17:17:39.657Z,8.58
2019-04-30T17:20:10.304Z,7.37
2019-04-30T17:22:39.785Z,9.73
2019-04-30T17:25:10.041Z,9.00
2019-04-30T17:27:39.352Z,8.43
2019-04-30T17:30:11.091Z,10.03
2019-04-30T17:32:40.576Z,10.00
2019-04-30T17:35:10.194Z,11.30
2019-04-30T17:37:39.441Z,11.48
2019-04-30T17:40:09.553Z,10.72
2019-04-30T17:42:38.648Z,7.62
2019-04-30T17:45:11.273Z,11.48
2019-04-30T17:47:40.504Z,5.65
2019-04-30T17:50:10.360Z,8.75
2019-04-30T17:52:39.752Z,6.28
2019-04-30T17:55:12.032Z,9.13
2019-04-30T17:57:41.735Z,6.70
2019-04-30T18:00:18.768Z,9.58
2019-04-30T18:02:44.144Z,9.38
2019-04-30T18:05:14.225Z,8.78
2019-04-30T18:07:43.864Z,8.78
2019-04-30T18:10:15.080Z,7.97
2019-04-30T18:12:46.128Z,9.38
2019-04-30T18:15:18.439Z,11.20
2019-04-30T18:17:50.544Z,6.60
2019-04-30T18:20:30.617Z,9.08
2019-04-30T18:23:18.265Z,7.20
2019-04-30T18:25:57.479Z,8.30
2019-04-30T18:28:29.138Z,8.85
2019-04-30T18:30:59.043Z,8.95
2019-04-30T18:33:28.432Z,9.88
2019-04-30T18:35:59.526Z,10.48
2019-04-30T18:38:29.292Z,5.67
2019-04-30T18:40:59.502Z,7.75
2019-04-30T18:43:28.975Z,8.18
2019-04-30T18:45:58.233Z,8.48
2019-04-30T18:48:30.592Z,10.38
2019-04-30T18:51:00.072Z,8.55
2019-04-30T18:53:31.032Z,9.33
2019-04-30T18:56:00.722Z,6.22
2019-04-30T18:58:39.229Z,5.47
2019-04-30T19:01:01.016Z,10.45
2019-04-30T19:03:30.431Z,5.08
2019-04-30T19:06:01.654Z,5.20
2019-04-30T19:08:36.111Z,7.50
2019-04-30T19:11:10.011Z,7.40
2019-04-30T19:13:59.231Z,9.30
2019-04-30T19:16:45.080Z,10.43
2019-04-30T19:19:15.841Z,10.25
2019-04-30T19:21:44.895Z,7.55
2019-04-30T19:24:14.712Z,10.45
2019-04-30T19:26:44.423Z,7.20
2019-04-30T19:29:13.936Z,10.48
2019-04-30T19:31:43.280Z,8.68
2019-04-30T19:34:13.343Z,6.72
2019-04-30T19:36:44.420Z,10.82
2019-04-30T19:39:13.690Z,11.30
2019-04-30T19:41:42.545Z,11.55
2019-04-30T19:44:11.660Z,12.53
2019-04-30T19:46:41.641Z,5.97
2019-04-30T19:49:10.640Z,7.85
2019-04-30T19:51:40.220Z,7.92
2019-04-30T19:54:12.113Z,9.15
2019-04-30T19:56:41.914Z,6.35
2019-04-30T19:59:10.951Z,9.28
2019-04-30T20:01:40.512Z,7.67
2019-04-30T20:04:10.568Z,7.53
2019-04-30T20:06:40.359Z,6.65
2019-04-30T20:09:11.325Z,7.85
2019-04-30T20:11:42.604Z,9.20
2019-04-30T20:14:12.833Z,10.40
2019-04-30T20:16:42.369Z,10.20
2019-04-30T20:19:11.953Z,10.98
2019-04-30T20:21:50.436Z,10.72
2019-04-30T20:24:13.769Z,8.53
2019-04-30T20:26:43.828Z,8.43
2019-04-30T20:29:13.345Z,9.70
2019-04-30T20:31:46.385Z,9.63
2019-04-30T20:34:19.198Z,7.80
2019-04-30T20:36:49.455Z,7.72
2019-04-30T20:39:20.737Z,10.75
2019-04-30T20:41:52.439Z,11.22
2019-04-30T20:44:22.130Z,11.75
2019-04-30T20:46:52.055Z,10.93
2019-04-30T20:49:22.167Z,5.92
2019-04-30T20:51:55.265Z,12.63
2019-04-30T20:54:24.528Z,10.63
2019-04-30T20:56:53.795Z,7.97
2019-04-30T20:59:23.104Z,10.23
2019-04-30T21:01:53.936Z,8.40
2019-04-30T21:04:25.216Z,9.10
2019-04-30T21:06:55.848Z,9.40
2019-04-30T21:09:25.417Z,7.28
2019-04-30T21:11:56.135Z,10.55
2019-04-30T21:14:25.607Z,10.68
2019-04-30T21:16:54.919Z,10.55
2019-04-30T21:19:25.447Z,11.50
2019-04-30T21:21:55.888Z,9.55
2019-04-30T21:24:25.111Z,10.60
2019-04-30T21:26:56.304Z,10.43
2019-04-30T21:29:25.904Z,7.22
2019-04-30T21:32:09.168Z,10.78
2019-04-30T21:34:51.457Z,9.70
2019-04-30T21:37:21.296Z,9.53
2019-04-30T21:39:50.760Z,10.15
2019-04-30T21:42:20.832Z,9.78
2019-04-30T21:44:50.560Z,11.88
2019-04-30T21:47:19.616Z,4.92
2019-04-30T21:49:50.465Z,9.65
2019-04-30T21:52:20.528Z,7.78
2019-04-30T21:54:49.939Z,7.12
2019-04-30T21:57:19.639Z,8.35
2019-04-30T21:59:52.071Z,10.08
2019-04-30T22:02:21.809Z,9.98
2019-04-30T22:04:51.256Z,9.95
2019-04-30T22:07:20.785Z,9.00
2019-04-30T22:09:50.072Z,7.12
2019-04-30T22:12:19.108Z,10.90
2019-04-30T22:14:48.320Z,11.00
2019-04-30T22:17:19.173Z,11.10
2019-04-30T22:19:49.117Z,10.32
2019-04-30T22:22:19.264Z,11.28
2019-04-30T22:24:49.699Z,10.05
2019-04-30T22:27:18.760Z,11.48
2019-04-30T22:29:47.839Z,10.43
2019-04-30T22:32:17.080Z,10.58
2019-04-30T22:34:46.219Z,9.95
2019-04-30T22:37:15.335Z,9.68
2019-04-30T22:40:01.239Z,10.00
2019-04-30T22:42:32.610Z,8.70
2019-04-30T22:45:02.567Z,9.63
2019-04-30T22:47:31.503Z,9.00
2019-04-30T22:50:00.617Z,10.10
2019-04-30T22:52:29.608Z,6.20
2019-04-30T22:54:58.592Z,9.00
2019-04-30T22:57:27.695Z,7.05
2019-04-30T22:59:56.687Z,10.95
2019-04-30T23:02:33.344Z,9.75
2019-04-30T23:05:03.247Z,8.95
2019-04-30T23:07:32.375Z,8.00
2019-04-30T23:10:01.337Z,8.40
2019-04-30T23:12:30.336Z,8.05
2019-04-30T23:14:59.415Z,6.12
2019-04-30T23:17:28.455Z,8.38
2019-04-30T23:19:57.383Z,11.22
2019-04-30T23:22:26.343Z,7.90
2019-04-30T23:24:55.311Z,11.18
2019-04-30T23:27:24.367Z,11.53
2019-04-30T23:30:03.102Z,6.83
2019-04-30T23:32:23.935Z,12.40
2019-04-30T23:34:52.887Z,8.98
2019-04-30T23:37:21.759Z,11.35
2019-04-30T23:39:50.805Z,12.20
2019-04-30T23:42:20.039Z,12.07
2019-04-30T23:44:50.311Z,11.43
2019-04-30T23:47:19.232Z,11.80
2019-04-30T23:49:49.695Z,11.12
2019-04-30T23:52:18.571Z,12.93
2019-04-30T23:54:47.519Z,10.30
2019-04-30T23:57:16.504Z,14.35
2019-04-30T23:59:48.503Z,12.70
